Weather reports worldwide

Advertisment
Bridlington Mrsc, United Kingdom (3292): temperature & dewpoint: 19.09.2018 11:00:00 - 25.09.2018 11:00:00 (BST)Bridlington Mrsc, United Kingdom (3292): wind speed & gusts: 19.09.2018 11:00:00 - 25.09.2018 11:00:00 (BST)Bridlington Mrsc, United Kingdom (3292): wind direction: 19.09.2018 11:00:00 - 25.09.2018 11:00:00 (BST)Bridlington Mrsc, United Kingdom (3292): reduced air pressure: 19.09.2018 11:00:00 - 25.09.2018 11:00:00 (BST)Bridlington Mrsc, United Kingdom (3292): precipitation: 19.09.2018 11:00:00 - 25.09.2018 11:00:00 (BST)
Date & Time tt [°C] td [°C] ff [km/h] ff [kn] fx [km/h] fx [kn] dd ppp [hPa] rr [mm]
25.09.2018 11:00:00 - - - - - - - - -
25.09.2018 10:00:00 11,3 6,9 9 5 - - WSW 1037,2 0,0
25.09.2018 09:00:00 8,8 6,3 15 8 - - W 1036,9 0,0
25.09.2018 08:00:00 6,2 5,4 2 1 - - NW 1036,9 0,0
25.09.2018 07:00:00 5,2 4,2 11 6 - - W 1036,7 0,0
25.09.2018 06:00:00 5,9 5,2 13 7 - - WNW 1036,6 0,0
25.09.2018 05:00:00 5,2 4,3 8 4 - - W 1036,6 0,0
25.09.2018 04:00:00 6,0 5,0 9 5 - - WNW 1037,1 0,0
25.09.2018 03:00:00 6,3 5,0 8 4 - - W 1037,4 0,0
25.09.2018 02:00:00 6,8 5,3 9 5 - - W 1037,5 0,0
25.09.2018 01:00:00 7,1 5,4 11 6 - - WNW 1037,6 0,0
25.09.2018 00:00:00 7,7 5,6 9 5 - - WNW 1037,5 0,0
24.09.2018 23:00:00 8,5 5,8 11 6 - - WNW 1037,1 0,0
24.09.2018 22:00:00 9,1 5,6 11 6 - - W 1037,0 0,0
24.09.2018 21:00:00 9,7 5,4 9 5 - - WNW 1036,9 0,0
24.09.2018 20:00:00 10,2 6,1 5 3 - - NNW 1036,7 0,0
24.09.2018 19:00:00 11,4 5,8 4 2 - - WSW 1036,1 0,0
24.09.2018 18:00:00 12,5 5,9 2 1 - - NW 1036,0 0,0
24.09.2018 17:00:00 13,1 6,9 11 6 - - N 1036,1 0,0
24.09.2018 16:00:00 13,2 5,9 13 7 - - N 1036,1 0,0
24.09.2018 15:00:00 13,3 5,6 16 9 - - N 1036,2 0,0
24.09.2018 14:00:00 14,7 6,1 5 3 - - N 1036,2 0,0
24.09.2018 13:00:00 14,5 4,9 16 9 - - N 1036,3 0,0
24.09.2018 12:00:00 14,1 5,4 15 8 - - W 1036,0 0,0
24.09.2018 11:00:00 13,3 5,1 15 8 - - WNW 1036,0 0,0
24.09.2018 10:00:00 11,6 4,6 13 7 - - W 1035,5 0,0
24.09.2018 09:00:00 9,1 4,1 13 7 - - WNW 1034,8 0,0
24.09.2018 08:00:00 6,5 3,6 16 9 - - WNW 1034,3 0,0
24.09.2018 07:00:00 5,0 3,1 13 7 - - WNW 1033,6 0,0
24.09.2018 06:00:00 4,9 3,0 15 8 - - WNW 1033,2 0,0
24.09.2018 05:00:00 5,7 3,4 13 7 - - WNW 1032,8 0,0
24.09.2018 04:00:00 6,2 3,9 18 10 - - NW 1032,2 0,0
24.09.2018 03:00:00 5,9 3,9 16 9 - - WNW 1031,9 0,0
24.09.2018 02:00:00 6,6 4,2 15 8 - - WNW 1030,7 0,0
24.09.2018 01:00:00 7,3 4,6 15 8 - - WNW 1029,7 0,0
24.09.2018 00:00:00 6,1 4,5 9 5 - - W 1028,8 0,0
23.09.2018 23:00:00 6,6 4,6 11 6 - - WNW 1028,4 0,0
23.09.2018 22:00:00 7,1 5,1 11 6 - - WNW 1027,5 0,0
23.09.2018 21:00:00 7,7 5,0 11 6 - - W 1026,7 0,0
23.09.2018 20:00:00 9,0 5,3 11 6 - - WNW 1025,5 0,0
23.09.2018 19:00:00 10,6 5,4 15 8 - - NNW 1024,1 0,0
23.09.2018 18:00:00 11,3 5,7 18 10 - - NNW 1022,9 0,0
23.09.2018 17:00:00 11,6 6,5 21 11 - - NNW 1021,9 0,0
23.09.2018 16:00:00 12,5 5,9 26 14 - - NNW 1020,6 0,0
23.09.2018 15:00:00 12,6 5,6 24 13 - - NNW 1019,7 0,0
23.09.2018 14:00:00 12,0 6,2 22 12 - - NNW 1018,7 0,0
23.09.2018 13:00:00 11,9 7,6 15 8 - - NNW 1017,8 0,0
23.09.2018 12:00:00 11,0 5,4 18 10 - - NNW 1017,0 0,0
23.09.2018 11:00:00 10,7 6,8 18 10 - - NNW 1016,2 0,0
23.09.2018 10:00:00 10,0 6,5 15 8 - - NNW 1015,6 0,0
23.09.2018 09:00:00 9,0 5,6 15 8 - - NNW 1015,0 0,0
23.09.2018 08:00:00 8,1 5,0 11 6 - - NW 1014,7 0,0
23.09.2018 07:00:00 8,3 4,8 13 7 - - NW 1014,7 0,0
23.09.2018 06:00:00 8,3 4,7 9 5 - - NW 1014,8 0,0
23.09.2018 05:00:00 8,4 4,8 9 5 - - NW 1014,6 0,0
23.09.2018 04:00:00 9,1 4,7 13 7 - - NNW 1014,8 0,0
23.09.2018 03:00:00 9,3 5,1 11 6 - - NNW 1014,8 0,0
23.09.2018 02:00:00 9,2 4,9 11 6 - - N 1014,7 0,0
23.09.2018 01:00:00 8,6 5,1 9 5 - - NW 1015,3 0,0
23.09.2018 00:00:00 9,0 5,7 9 5 - - WNW 1015,4 0,0
22.09.2018 23:00:00 9,2 6,1 9 5 - - WNW 1015,1 0,0
22.09.2018 22:00:00 9,5 6,4 9 5 - - W 1015,3 0,0
22.09.2018 21:00:00 9,7 6,2 11 6 - - W 1015,3 0,0
22.09.2018 20:00:00 10,5 6,3 8 4 - - W 1015,0 0,0
22.09.2018 19:00:00 11,7 5,8 11 6 - - W 1014,9 0,0
22.09.2018 18:00:00 12,7 5,2 13 7 - - W 1014,6 0,0
22.09.2018 17:00:00 13,3 5,2 15 8 - - W 1014,8 0,0
22.09.2018 16:00:00 13,5 6,2 16 9 - - WSW 1014,9 0,0
22.09.2018 15:00:00 13,7 6,4 22 12 - - WSW 1015,4 0,0
22.09.2018 14:00:00 14,0 6,3 18 10 - - WSW 1015,6 0,0
22.09.2018 13:00:00 12,8 5,8 24 13 - - W 1015,6 0,0
22.09.2018 12:00:00 12,0 5,9 18 10 - - W 1015,6 0,0
22.09.2018 11:00:00 11,8 6,6 16 9 - - W 1015,7 0,0
22.09.2018 10:00:00 10,6 6,3 13 7 - - WSW 1015,4 0,0
22.09.2018 09:00:00 9,5 6,0 13 7 - - W 1015,0 0,0
22.09.2018 08:00:00 8,8 6,4 15 8 - - WSW 1014,8 0,0
22.09.2018 07:00:00 8,6 6,6 13 7 - - WSW 1014,4 0,0
22.09.2018 06:00:00 8,4 6,3 11 6 - - W 1014,5 0,0
22.09.2018 05:00:00 8,7 6,7 15 8 - - WSW 1014,2 0,0
22.09.2018 04:00:00 8,4 6,7 11 6 - - WSW 1013,9 0,0
22.09.2018 03:00:00 8,4 6,4 8 4 - - WSW 1013,9 0,0
22.09.2018 02:00:00 8,8 6,4 11 6 - - W 1013,1 0,0
22.09.2018 01:00:00 9,3 6,5 18 10 - - W 1012,5 0,0
22.09.2018 00:00:00 9,1 6,4 15 8 - - WSW 1012,0 0,0
21.09.2018 23:00:00 10,1 6,1 16 9 - - W 1011,3 0,0
21.09.2018 22:00:00 10,2 6,9 18 10 - - W 1010,7 0,0
21.09.2018 21:00:00 10,7 6,7 18 10 - - W 1009,5 0,0
21.09.2018 20:00:00 11,4 6,5 18 10 - - W 1008,3 0,0
21.09.2018 19:00:00 12,4 6,5 22 12 46 25 W 1006,6 0,0
21.09.2018 18:00:00 13,0 7,4 26 14 46 25 WNW 1004,8 0,0
21.09.2018 17:00:00 12,3 10,1 21 11 - - W 1003,2 0,0
21.09.2018 16:00:00 12,7 8,0 26 14 54 29 WSW 1002,3 0,0
21.09.2018 15:00:00 13,9 7,4 29 16 61 33 WSW 1001,5 0,0
21.09.2018 14:00:00 14,6 7,1 29 16 57 31 WSW 1001,1 0,0
21.09.2018 13:00:00 13,3 7,2 31 17 61 33 WSW 1000,5 0,0
21.09.2018 12:00:00 12,7 6,4 34 18 65 35 WSW 999,7 0,0
21.09.2018 11:00:00 11,5 6,3 24 13 48 26 WSW 999,0 0,0
21.09.2018 10:00:00 11,1 6,2 31 17 61 33 WSW 998,3 0,0
21.09.2018 09:00:00 9,7 6,0 26 14 48 26 W 997,0 0,0
21.09.2018 08:00:00 8,5 5,4 24 13 - - W 995,8 0,0
21.09.2018 07:00:00 7,6 4,3 34 18 55 30 W 994,4 0,0
21.09.2018 06:00:00 7,4 4,7 34 18 78 42 W 992,3 0,0
21.09.2018 05:00:00 8,6 5,6 46 25 81 44 W 988,5 0,0
21.09.2018 04:00:00 12,0 8,6 46 25 85 46 SW 984,9 1,0
21.09.2018 03:00:00 16,4 14,2 35 19 63 34 SSW 985,1 0,0
21.09.2018 02:00:00 16,3 15,2 35 19 74 40 SSW 986,5 5,0
21.09.2018 01:00:00 16,0 15,5 54 29 76 41 S 988,0 3,6
21.09.2018 00:00:00 16,0 15,0 44 24 54 29 S 989,8 0,4
20.09.2018 23:00:00 15,9 15,2 46 25 57 31 S 992,6 1,8
20.09.2018 22:00:00 15,6 15,6 29 16 - - SSW 994,4 0,0
20.09.2018 21:00:00 12,5 12,4 11 6 - - E 996,3 0,2
20.09.2018 20:00:00 11,7 11,4 26 14 - - N 997,7 10,6
20.09.2018 19:00:00 12,3 12,0 26 14 - - N 998,8 8,2
20.09.2018 18:00:00 12,3 12,0 15 8 - - N 999,8 7,0
20.09.2018 17:00:00 12,0 11,5 13 7 - - E 1002,5 8,6
20.09.2018 16:00:00 12,6 11,6 24 13 - - SE 1004,5 4,0
20.09.2018 15:00:00 13,4 10,3 18 10 - - SSE 1005,9 0,4
20.09.2018 14:00:00 14,2 9,9 16 9 - - S 1007,2 0,0
20.09.2018 13:00:00 15,1 9,4 21 11 - - S 1007,7 0,0
20.09.2018 12:00:00 15,1 9,2 18 10 - - SSW 1008,6 0,0
20.09.2018 11:00:00 15,7 10,9 16 9 - - S 1009,4 0,0
20.09.2018 10:00:00 13,8 9,5 11 6 - - SW 1009,7 0,0
20.09.2018 09:00:00 12,2 9,6 13 7 - - SSW 1009,7 0,0
20.09.2018 08:00:00 12,1 9,0 15 8 - - SW 1009,5 0,0
20.09.2018 07:00:00 12,3 9,0 15 8 - - SW 1009,5 0,0
20.09.2018 06:00:00 12,4 8,5 16 9 - - SW 1009,1 0,0
20.09.2018 05:00:00 12,8 8,2 15 8 - - SW 1009,4 0,0
20.09.2018 04:00:00 12,8 8,0 18 10 - - SW 1009,3 0,0
20.09.2018 03:00:00 12,4 7,6 21 11 - - SW 1009,3 0,0
20.09.2018 02:00:00 12,5 7,2 22 12 - - SW 1009,1 0,0
20.09.2018 01:00:00 13,1 6,8 24 13 - - SW 1009,0 0,0
20.09.2018 00:00:00 13,1 6,6 22 12 - - SW 1009,0 0,0
19.09.2018 23:00:00 13,7 6,7 24 13 - - SW 1008,8 0,0
19.09.2018 22:00:00 13,9 7,1 16 9 - - SW 1008,6 0,0
19.09.2018 21:00:00 14,6 6,2 24 13 52 28 SW 1007,9 0,0
19.09.2018 20:00:00 15,1 6,3 28 15 50 27 SW 1007,0 0,0
19.09.2018 19:00:00 15,8 6,1 24 13 54 29 WSW 1006,3 0,0
19.09.2018 18:00:00 16,7 6,6 29 16 72 39 WSW 1004,8 0,0
19.09.2018 17:00:00 18,6 5,4 35 19 78 42 WSW 1003,1 0,0
19.09.2018 16:00:00 18,4 12,2 42 23 93 50 WSW 1001,7 1,0
19.09.2018 15:00:00 21,5 12,0 52 28 87 47 SW 1000,4 0,0
19.09.2018 14:00:00 21,1 11,6 46 25 87 47 SW 1000,2 0,0
19.09.2018 13:00:00 20,0 11,8 52 28 91 49 SSW 1000,1 0,0
19.09.2018 12:00:00 18,9 12,4 54 29 80 43 SSW 1001,1 0,0
19.09.2018 11:00:00 18,5 12,7 52 28 72 39 SSW 1002,5 0,0

tt = temperature
td = dewpoint
ff = wind speed
fx = gusts
dd = wind direction
ppp = reduced air pressure
rr = precipitation

Next stations